Main page
METAR-TAF:

METAR-TAF

Airports :

Porto Seguro Airport

Porto Seguro, Bahia, Brazil

latitude: 16-26S, longitude: 039-04W, elevation: 51 m

Current weather observation

The report was made 41 minutes ago, at 16:00 UTC
Wind 15 kt from the East/Northeast
Temperature 30°C
Humidity 66%
Pressure 1011 hPa
Visibility 10 km or more
Few clouds at a height of 2000 ft

METAR: SBPS 211600Z 06015KT 9999 FEW020 30/23 Q1011

Time: 13:41 (16:41 UTC)

Forecast

The report was made 6 hours and 41 minutes ago, at 10:00 UTC
Forecast valid from 21 at 12 UTC to 22 at 12 UTC
Wind 8 kt from the East
Visibility 10 km or more
Few clouds at a height of 2000 ft
Becoming
from 22 at 02 UTC to 22 at 04 UTC
Wind 9 kt from the North/Northeast

TAF: SBPS 211000Z 2112/2212 10008KT 9999 FEW020 TX30/2119Z TN23/2205Z BECMG 2202/2204 02009KT RMK PED

Weather observations and forecasts of more than 4000 airports (METAR and TAF reports).

The available stations are represented by yellow and red dots on the map.

Hover mouse over dot to see the name of the station.

Then click to see weather observations and forecasts.

To change the map : click on the green buttons with a black cross to zoom in, on the green button with a dash to zoom out, or on the green arrows for adjacent maps.


METAR-TAF: